Time;durP1;ratioP1;P1;durP2;ratioP2;P2;SDS_P1;SDS_P2;PMS_P1;PMS_P2;Temp;Humidity;BMP_temperature;BMP_pressure;BME280_temperature;BME280_humidity;BME280_pressure;Samples;Min_cycle;Max_cycle;Signal;HPM_P1;HPM_P2
2023/01/02 00:04:49;;;;;;;15.00;9.40;;;;;;;9.36;73.28;100352.56;209157;1285;140995;-68
2023/01/02 00:09:52;;;;;;;14.00;9.00;;;;;;;9.41;73.29;100347.91;208265;1294;140121;-68
2023/01/02 00:14:54;;;;;;;12.70;9.80;;;;;;;9.42;73.45;100351.14;207642;1293;140244;-66
2023/01/02 00:19:56;;;;;;;16.80;9.90;;;;;;;9.44;73.49;100353.69;208521;1291;140109;-68
2023/01/02 00:24:59;;;;;;;12.60;8.30;;;;;;;9.44;73.54;100345.52;207579;1286;140078;-67
2023/01/02 00:30:04;;;;;;;12.40;7.10;;;;;;;9.45;73.59;100346.39;207886;1286;140384;-65
2023/01/02 00:35:08;;;;;;;20.30;8.60;;;;;;;9.48;73.36;100344.73;208270;1295;143128;-64
2023/01/02 00:40:12;;;;;;;16.60;9.60;;;;;;;9.45;73.56;100339.84;208424;1288;139753;-68
2023/01/02 00:45:14;;;;;;;12.80;7.40;;;;;;;9.44;73.62;100335.63;207604;1287;139772;-65
2023/01/02 00:50:18;;;;;;;15.20;9.10;;;;;;;9.44;73.54;100326.63;207658;1296;140843;-68
2023/01/02 00:55:21;;;;;;;18.50;9.50;;;;;;;9.48;73.44;100317.01;208851;1286;141239;-67
2023/01/02 01:00:23;;;;;;;13.50;9.10;;;;;;;9.48;73.45;100317.86;207603;1294;140017;-65
2023/01/02 01:05:27;;;;;;;17.20;9.40;;;;;;;9.49;73.61;100325.39;207599;1287;140369;-70
2023/01/02 01:10:30;;;;;;;17.30;8.70;;;;;;;9.46;73.47;100322.48;208483;1278;140690;-63
2023/01/02 01:15:34;;;;;;;12.80;8.30;;;;;;;9.47;73.54;100325.38;208686;1278;139943;-66
2023/01/02 01:20:38;;;;;;;15.00;8.70;;;;;;;9.47;73.42;100320.17;208894;1293;140711;-68
2023/01/02 01:25:40;;;;;;;9.00;6.90;;;;;;;9.46;73.43;100310.14;208797;1285;141146;-67
2023/01/02 01:30:43;;;;;;;11.80;7.60;;;;;;;9.44;73.53;100305.00;208634;1281;142115;-66
2023/01/02 01:35:46;;;;;;;17.60;7.70;;;;;;;9.44;73.70;100299.48;210408;1274;140314;-70
2023/01/02 01:40:48;;;;;;;9.30;6.80;;;;;;;9.47;73.59;100298.34;210564;1292;144937;-66
2023/01/02 01:45:51;;;;;;;13.90;8.10;;;;;;;9.53;73.48;100294.45;210535;1294;248187;-67
2023/01/02 01:50:55;;;;;;;15.40;7.90;;;;;;;9.54;73.46;100288.95;209061;1294;139943;-68
2023/01/02 01:56:03;;;;;;;11.30;7.90;;;;;;;9.55;73.47;100286.70;208154;1287;140039;-67
2023/01/02 02:01:08;;;;;;;13.30;8.40;;;;;;;9.55;73.53;100284.90;208022;1294;140403;-70
2023/01/02 02:06:12;;;;;;;16.60;7.70;;;;;;;9.56;73.48;100280.75;208919;1294;149688;-70
2023/01/02 02:11:17;;;;;;;14.10;7.10;;;;;;;9.60;73.37;100281.96;207753;1284;141074;-69
2023/01/02 02:16:33;;;;;;;11.30;6.90;;;;;;;9.64;73.50;100268.42;208051;1294;140938;-69
2023/01/02 02:21:44;;;;;;;11.70;7.60;;;;;;;9.59;73.40;100259.12;208149;1292;139691;-68
2023/01/02 02:27:21;;;;;;;19.10;8.70;;;;;;;9.54;73.41;100260.66;207599;1285;140730;-68
2023/01/02 02:32:33;;;;;;;14.10;7.70;;;;;;;9.51;73.56;100259.41;207680;1294;140875;-68
2023/01/02 02:37:53;;;;;;;12.10;8.00;;;;;;;9.58;73.54;100269.98;207712;1286;141982;-68
2023/01/02 02:43:23;;;;;;;10.80;7.10;;;;;;;9.57;73.56;100268.55;208020;1287;139815;-67
2023/01/02 02:48:46;;;;;;;13.20;7.40;;;;;;;9.52;73.46;100276.24;207579;1278;139961;-68
2023/01/02 02:53:56;;;;;;;8.50;6.60;;;;;;;9.37;73.42;100267.05;208435;1286;142729;-70
2023/01/02 02:59:01;;;;;;;17.00;7.90;;;;;;;9.30;73.42;100265.61;207623;1294;139460;-66
2023/01/02 03:04:16;;;;;;;9.70;7.30;;;;;;;9.29;73.40;100260.63;208144;1286;140124;-67
2023/01/02 03:09:32;;;;;;;12.90;7.30;;;;;;;9.27;73.60;100260.87;207699;1300;140049;-64
2023/01/02 03:14:43;;;;;;;11.00;8.10;;;;;;;9.18;73.56;100253.11;208268;1300;656952;-68
2023/01/02 03:19:56;;;;;;;13.10;8.40;;;;;;;9.12;73.74;100250.89;209241;1291;139800;-68
2023/01/02 03:25:01;;;;;;;8.80;6.60;;;;;;;9.11;73.70;100259.21;210074;1294;140119;-68
2023/01/02 03:30:09;;;;;;;14.70;8.60;;;;;;;9.13;73.72;100261.79;208235;1289;140930;-67
2023/01/02 03:35:18;;;;;;;8.10;7.20;;;;;;;9.15;73.83;100258.67;210307;1295;139480;-65
2023/01/02 03:40:29;;;;;;;15.10;7.90;;;;;;;9.12;73.79;100262.44;209133;1293;141053;-66
2023/01/02 03:45:36;;;;;;;12.10;7.70;;;;;;;9.05;73.69;100258.26;208376;1278;141663;-66
2023/01/02 03:50:51;;;;;;;10.20;7.10;;;;;;;8.91;73.48;100253.23;207816;1287;141078;-66
2023/01/02 03:56:15;;;;;;;9.00;6.50;;;;;;;8.85;73.84;100254.35;208461;1287;139641;-66
2023/01/02 04:01:37;;;;;;;12.00;7.30;;;;;;;8.78;73.85;100250.57;208219;1294;139618;-66
2023/01/02 04:06:48;;;;;;;8.40;5.20;;;;;;;8.61;73.66;100250.89;208460;1294;140968;-66
2023/01/02 04:12:06;;;;;;;13.80;7.80;;;;;;;8.45;73.82;100246.37;207732;1294;141287;-66
2023/01/02 04:17:11;;;;;;;9.90;7.50;;;;;;;8.38;73.94;100236.08;208660;1294;140896;-66
2023/01/02 04:22:22;;;;;;;15.80;8.90;;;;;;;8.38;74.18;100226.35;207995;1285;144615;-66
2023/01/02 04:27:32;;;;;;;13.30;7.80;;;;;;;8.26;74.23;100221.74;207772;1291;140121;-66
2023/01/02 04:32:42;;;;;;;13.00;6.90;;;;;;;8.07;74.20;100219.92;208136;1294;139615;-65
2023/01/02 04:37:46;;;;;;;11.30;6.60;;;;;;;8.06;74.85;100220.79;208569;1295;140433;-67
2023/01/02 04:42:50;;;;;;;9.80;6.30;;;;;;;8.06;75.07;100209.64;208700;1287;143423;-67
2023/01/02 04:47:53;;;;;;;9.00;6.80;;;;;;;8.14;75.65;100212.45;207907;1288;140929;-66
2023/01/02 04:52:56;;;;;;;11.70;7.50;;;;;;;8.21;75.78;100205.20;208347;1285;140702;-66
2023/01/02 04:57:59;;;;;;;11.00;6.40;;;;;;;8.31;75.63;100194.95;207892;1295;141716;-66
2023/01/02 05:03:04;;;;;;;10.80;6.50;;;;;;;8.35;75.80;100194.31;207568;1287;246724;-66
2023/01/02 05:08:08;;;;;;;11.10;7.90;;;;;;;8.36;76.11;100187.00;207760;1294;141626;-66
2023/01/02 05:13:20;;;;;;;13.30;6.30;;;;;;;8.35;75.99;100181.45;209245;1281;140653;-67
2023/01/02 05:18:23;;;;;;;12.60;7.40;;;;;;;8.38;75.99;100184.91;208948;1293;140115;-66
2023/01/02 05:28:48;;;;;;;11.30;7.20;;;;;;;8.46;76.22;100178.06;210590;1291;140605;-68
2023/01/02 05:33:53;;;;;;;8.90;5.60;;;;;;;8.45;76.28;100162.42;210709;1294;141335;-67
2023/01/02 05:38:56;;;;;;;16.20;8.30;;;;;;;8.48;76.09;100156.20;209820;1281;142490;-67
2023/01/02 05:43:59;;;;;;;13.50;8.50;;;;;;;8.54;75.93;100157.31;207789;1294;142258;-66
2023/01/02 05:49:09;;;;;;;10.20;6.50;;;;;;;8.53;76.23;100162.88;210107;1295;141089;-67
2023/01/02 05:54:13;;;;;;;9.20;5.60;;;;;;;8.50;76.33;100164.35;209257;1288;141477;-67
2023/01/02 05:59:15;;;;;;;7.50;6.30;;;;;;;8.49;76.33;100161.09;209278;1295;139627;-67
2023/01/02 06:04:17;;;;;;;8.80;5.30;;;;;;;8.47;76.38;100146.39;208206;1294;141204;-66
2023/01/02 06:09:21;;;;;;;7.80;5.80;;;;;;;8.45;76.62;100137.77;209180;1301;139878;-66
2023/01/02 06:14:23;;;;;;;10.80;7.20;;;;;;;8.49;76.48;100130.20;208574;1294;142221;-65
2023/01/02 06:19:26;;;;;;;6.80;5.60;;;;;;;8.51;76.74;100124.79;208120;1285;140594;-66
2023/01/02 06:24:29;;;;;;;9.10;5.70;;;;;;;8.51;76.99;100124.27;207815;1289;140149;-66
2023/01/02 06:29:33;;;;;;;8.20;4.50;;;;;;;8.53;76.94;100114.45;207881;1294;140067;-65
2023/01/02 06:34:35;;;;;;;8.40;4.90;;;;;;;8.54;77.23;100105.94;208008;1295;140341;-65
2023/01/02 06:39:41;;;;;;;7.80;5.50;;;;;;;8.57;77.15;100100.88;208092;1286;141743;-67
2023/01/02 06:44:45;;;;;;;7.00;5.00;;;;;;;8.65;77.21;100108.77;208453;1285;140244;-69
2023/01/02 06:49:48;;;;;;;8.70;5.60;;;;;;;8.70;77.49;100112.09;209186;1293;140602;-67
2023/01/02 06:54:51;;;;;;;10.80;5.90;;;;;;;8.71;77.33;100097.70;209258;1287;139728;-66
2023/01/02 06:59:55;;;;;;;12.30;7.50;;;;;;;8.75;77.27;100093.95;208028;1287;141965;-66
2023/01/02 07:04:58;;;;;;;10.50;6.30;;;;;;;8.83;77.44;100094.40;209667;1300;139672;-67
2023/01/02 07:10:02;;;;;;;7.50;5.20;;;;;;;8.87;77.29;100091.83;209716;1287;141123;-67
2023/01/02 07:15:05;;;;;;;11.70;5.60;;;;;;;8.89;77.28;100089.67;208417;1301;141298;-67
2023/01/02 07:20:09;;;;;;;10.90;5.40;;;;;;;8.92;77.31;100087.65;208838;1286;143058;-68
2023/01/02 07:25:12;;;;;;;8.00;4.80;;;;;;;8.92;77.32;100084.34;208272;1284;141279;-68
2023/01/02 07:30:15;;;;;;;8.70;6.40;;;;;;;8.93;77.29;100087.69;210411;1287;141607;-68
2023/01/02 07:35:19;;;;;;;7.70;5.90;;;;;;;8.99;77.46;100087.77;209446;1295;141279;-68
2023/01/02 07:40:22;;;;;;;10.40;6.20;;;;;;;9.07;77.32;100101.55;208768;1287;142183;-67
2023/01/02 07:45:34;;;;;;;7.80;6.30;;;;;;;9.12;77.21;100099.15;209804;1284;139831;-69
2023/01/02 07:50:37;;;;;;;7.20;5.30;;;;;;;9.15;77.39;100099.25;209578;1294;140043;-69
2023/01/02 07:55:41;;;;;;;8.10;5.60;;;;;;;9.21;77.30;100091.86;207695;1288;139980;-68
2023/01/02 08:00:43;;;;;;;10.90;6.00;;;;;;;9.32;77.22;100088.86;208951;1286;140008;-68
2023/01/02 08:05:46;;;;;;;9.90;5.80;;;;;;;9.40;77.16;100095.52;208593;1286;140443;-70
2023/01/02 08:10:49;;;;;;;8.70;6.40;;;;;;;9.43;77.08;100108.43;208915;1294;140897;-68
2023/01/02 08:15:51;;;;;;;7.70;4.50;;;;;;;9.47;77.01;100107.40;207756;1289;145590;-64
2023/01/02 08:20:55;;;;;;;7.30;5.40;;;;;;;9.56;76.91;100106.05;207848;1288;140658;-63
2023/01/02 08:26:00;;;;;;;4.50;4.10;;;;;;;9.63;77.11;100096.44;207349;1290;142861;-67
2023/01/02 08:31:15;;;;;;;7.70;6.10;;;;;;;9.70;77.11;100096.17;207828;1287;144944;-63
2023/01/02 08:36:19;;;;;;;8.00;5.10;;;;;;;9.81;76.99;100099.98;208142;1295;139641;-64
2023/01/02 08:41:36;;;;;;;7.50;5.00;;;;;;;9.91;77.10;100109.91;208129;1287;159162;-68
2023/01/02 08:46:39;;;;;;;7.30;5.20;;;;;;;10.05;76.97;100112.98;207732;1294;140301;-67
2023/01/02 08:51:46;;;;;;;8.30;5.10;;;;;;;10.19;76.99;100116.26;207489;1285;139755;-68
2023/01/02 08:56:49;;;;;;;77.20;43.90;;;;;;;10.29;76.80;100120.55;210123;1297;139961;-66
2023/01/02 09:01:52;;;;;;;17.70;10.60;;;;;;;10.38;76.51;100123.77;208075;1293;140913;-65
2023/01/02 09:06:57;;;;;;;21.00;12.00;;;;;;;10.45;76.39;100117.92;208753;1295;140858;-67
2023/01/02 09:12:01;;;;;;;20.10;14.40;;;;;;;10.50;76.13;100115.94;210078;1300;142185;-65
2023/01/02 09:17:04;;;;;;;13.50;10.50;;;;;;;10.58;76.26;100112.59;210190;1289;141187;-69
2023/01/02 09:22:08;;;;;;;6.70;4.70;;;;;;;10.67;76.22;100110.48;208933;1287;141718;-66
2023/01/02 09:27:11;;;;;;;9.90;5.70;;;;;;;10.77;75.83;100106.79;208824;1294;140344;-68
2023/01/02 09:32:14;;;;;;;5.50;4.70;;;;;;;10.83;75.66;100103.64;210179;1295;139814;-65
2023/01/02 09:37:18;;;;;;;8.00;4.50;;;;;;;10.91;75.78;100107.98;209932;1301;141299;-69
2023/01/02 09:42:21;;;;;;;6.70;4.60;;;;;;;11.05;75.87;100111.30;207414;1295;140358;-65
2023/01/02 09:47:28;;;;;;;8.70;5.00;;;;;;;11.17;75.40;100100.41;207786;1288;139462;-68
2023/01/02 09:52:39;;;;;;;6.70;5.80;;;;;;;11.28;75.44;100093.15;207433;1294;140021;-66
2023/01/02 09:58:24;;;;;;;7.20;5.00;;;;;;;11.38;75.31;100091.44;207362;1296;140326;-67
2023/01/02 10:03:43;;;;;;;6.90;4.80;;;;;;;11.53;75.16;100092.41;206578;1299;140379;-67
2023/01/02 10:08:55;;;;;;;7.30;5.10;;;;;;;11.67;75.18;100083.09;207919;1285;152376;-68
2023/01/02 10:14:21;;;;;;;8.10;4.00;;;;;;;11.79;74.97;100077.88;208347;1281;139696;-68
2023/01/02 10:19:54;;;;;;;5.30;3.20;;;;;;;12.00;74.92;100070.07;207412;1289;139536;-66
2023/01/02 10:25:17;;;;;;;4.70;3.70;;;;;;;12.30;74.69;100059.97;207674;1287;223217;-67
2023/01/02 10:30:22;;;;;;;5.90;3.90;;;;;;;12.54;74.58;100048.02;207987;1301;139761;-71
2023/01/02 10:35:40;;;;;;;7.60;3.70;;;;;;;12.72;74.27;100043.58;207995;1301;139976;-72
2023/01/02 10:40:46;;;;;;;5.40;3.90;;;;;;;12.78;73.61;100036.85;207715;1294;140302;-66
2023/01/02 10:45:48;;;;;;;4.00;3.60;;;;;;;12.93;73.51;100035.74;207323;1294;140232;-68
2023/01/02 10:50:55;;;;;;;4.40;3.50;;;;;;;13.07;73.54;100041.83;207360;1289;139966;-70
2023/01/02 10:56:04;;;;;;;8.60;4.00;;;;;;;13.09;73.03;100035.27;207361;1287;140021;-66
2023/01/02 11:01:12;;;;;;;3.70;3.40;;;;;;;13.01;72.76;100023.99;207364;1287;140362;-69
2023/01/02 11:06:26;;;;;;;4.30;3.70;;;;;;;12.94;72.63;100019.00;208367;1300;140611;-71
2023/01/02 11:11:32;;;;;;;4.50;3.10;;;;;;;12.97;72.38;100009.80;207711;1286;140023;-71
2023/01/02 11:16:39;;;;;;;4.00;3.70;;;;;;;13.08;72.53;100005.29;208442;1293;140325;-68
2023/01/02 11:21:42;;;;;;;5.50;3.40;;;;;;;13.14;72.39;100000.88;207231;1296;139699;-66
2023/01/02 11:26:47;;;;;;;6.10;3.40;;;;;;;13.17;72.07;100008.15;209588;1287;140201;-73
2023/01/02 11:31:53;;;;;;;6.60;4.20;;;;;;;13.29;71.90;100010.09;209455;1295;140792;-69
2023/01/02 11:37:03;;;;;;;17.80;4.40;;;;;;;13.33;71.64;100013.76;208247;1295;140628;-67
2023/01/02 11:47:46;;;;;;;6.10;4.20;;;;;;;13.55;71.48;99996.54;208264;1293;139959;-68
2023/01/02 11:53:06;;;;;;;4.30;3.80;;;;;;;13.63;71.43;100002.06;209068;1294;140330;-68
2023/01/02 11:58:51;;;;;;;6.10;4.40;;;;;;;13.77;71.34;99998.21;207369;1294;140713;-73
2023/01/02 12:03:55;;;;;;;5.20;4.00;;;;;;;13.93;71.17;99987.20;208461;1302;139626;-73
2023/01/02 12:09:12;;;;;;;4.60;3.30;;;;;;;14.03;70.81;99978.66;208472;1296;139559;-68
2023/01/02 12:14:20;;;;;;;4.10;3.50;;;;;;;14.09;70.64;99973.13;208593;1293;141243;-69
2023/01/02 12:20:04;;;;;;;7.70;4.20;;;;;;;14.05;70.37;99969.45;207839;1297;140503;-68
2023/01/02 12:25:19;;;;;;;3.60;3.00;;;;;;;13.96;70.41;99962.28;207867;1285;139962;-67
2023/01/02 12:30:24;;;;;;;5.70;3.40;;;;;;;14.01;70.51;99964.21;207626;1294;140647;-66
2023/01/02 12:36:08;;;;;;;4.80;3.80;;;;;;;14.02;70.36;99961.96;207699;1288;140055;-70
2023/01/02 12:41:18;;;;;;;6.80;3.60;;;;;;;14.10;70.32;99957.11;208515;1289;235219;-65
2023/01/02 12:46:45;;;;;;;4.30;3.10;;;;;;;14.11;70.34;99951.81;209191;1302;143000;-66
2023/01/02 12:51:55;;;;;;;6.30;4.20;;;;;;;14.07;70.00;99949.25;208012;1296;139648;-67
2023/01/02 12:57:08;;;;;;;3.50;3.20;;;;;;;14.09;70.09;99955.48;209401;1296;139710;-72
2023/01/02 13:02:17;;;;;;;4.50;4.10;;;;;;;14.19;70.11;99943.64;210381;1280;140056;-67
2023/01/02 13:07:27;;;;;;;8.30;4.20;;;;;;;14.32;69.90;99949.40;210269;1295;140457;-65
2023/01/02 13:12:33;;;;;;;5.70;3.70;;;;;;;14.44;69.58;99943.31;208092;1293;140392;-66
2023/01/02 13:18:10;;;;;;;4.00;3.60;;;;;;;14.43;69.25;99944.69;207729;1288;151831;-67
2023/01/02 13:23:32;;;;;;;6.50;3.50;;;;;;;14.30;69.12;99946.49;210242;1287;219917;-69
2023/01/02 13:28:51;;;;;;;4.50;3.70;;;;;;;14.21;69.24;99946.29;209524;1297;139416;-66
2023/01/02 13:33:54;;;;;;;5.70;3.80;;;;;;;14.10;69.05;99947.19;210357;1294;139841;-69
2023/01/02 13:38:59;;;;;;;5.60;4.40;;;;;;;14.02;69.15;99947.34;209432;1302;141198;-72
2023/01/02 13:44:03;;;;;;;6.20;4.70;;;;;;;14.00;69.05;99949.07;207969;1303;139699;-66
2023/01/02 13:49:13;;;;;;;5.30;4.10;;;;;;;13.92;69.20;99942.34;207208;1287;139028;-66
2023/01/02 13:54:19;;;;;;;4.90;4.20;;;;;;;13.77;69.21;99936.05;208549;1295;141042;-71
2023/01/02 13:59:27;;;;;;;4.20;3.80;;;;;;;13.65;69.43;99937.80;209110;1295;140139;-67
2023/01/02 14:04:44;;;;;;;9.70;4.60;;;;;;;13.57;69.55;99948.84;207290;1294;140027;-69
2023/01/02 14:10:10;;;;;;;3.90;3.50;;;;;;;13.56;69.48;99950.01;207801;1297;140603;-70
2023/01/02 14:15:25;;;;;;;6.20;4.30;;;;;;;13.51;69.70;99938.59;207566;1294;141936;-70
2023/01/02 14:20:31;;;;;;;3.20;2.90;;;;;;;13.44;69.91;99937.54;207306;1289;140206;-68
2023/01/02 14:25:48;;;;;;;5.30;3.70;;;;;;;13.34;70.00;99936.77;207486;1284;140879;-68
2023/01/02 14:30:53;;;;;;;6.30;3.70;;;;;;;13.25;70.00;99929.19;207990;1288;152961;-64
2023/01/02 14:36:01;;;;;;;5.80;4.40;;;;;;;13.14;70.20;99937.48;208086;1289;140065;-68
2023/01/02 14:47:22;;;;;;;22.70;4.50;;;;;;;13.07;70.44;99953.27;208740;1288;140009;-67
2023/01/02 14:52:32;;;;;;;7.90;5.60;;;;;;;13.03;70.65;99956.87;209401;1293;139793;-68
2023/01/02 14:57:43;;;;;;;6.80;4.10;;;;;;;12.98;70.72;99959.18;208689;1288;140217;-69
2023/01/02 15:02:53;;;;;;;7.80;5.10;;;;;;;12.91;70.86;99961.75;210436;1295;140456;-68
2023/01/02 15:08:00;;;;;;;10.10;5.60;;;;;;;12.88;70.83;99967.75;208346;1287;140255;-67
2023/01/02 15:13:07;;;;;;;8.40;5.30;;;;;;;12.91;71.00;99971.87;210195;1297;247436;-68
2023/01/02 15:18:22;;;;;;;5.30;4.80;;;;;;;12.90;71.17;99964.14;209799;1301;491663;-69
2023/01/02 15:23:26;;;;;;;10.70;6.10;;;;;;;12.85;71.32;99963.21;210403;1297;139871;-68
2023/01/02 15:28:32;;;;;;;6.60;5.40;;;;;;;12.80;71.12;99964.80;210126;1295;140071;-70
2023/01/02 15:33:35;;;;;;;7.10;4.90;;;;;;;12.76;71.49;99969.66;208178;1293;140871;-68
2023/01/02 15:38:39;;;;;;;11.10;6.20;;;;;;;12.75;71.15;99972.48;207430;1297;141145;-67
2023/01/02 15:49:09;;;;;;;5.80;4.80;;;;;;;12.63;71.61;99974.73;208098;1288;142000;-66
2023/01/02 15:54:14;;;;;;;7.80;6.30;;;;;;;12.50;71.66;99967.52;208789;1294;139723;-68
2023/01/02 15:59:25;;;;;;;8.70;4.90;;;;;;;12.42;71.89;99974.45;208898;1287;140470;-68
2023/01/02 16:04:31;;;;;;;10.70;6.80;;;;;;;12.39;71.87;99983.52;208333;1289;141248;-69
2023/01/02 16:09:34;;;;;;;9.90;7.70;;;;;;;12.35;72.18;99981.20;208133;1295;139981;-66
2023/01/02 16:14:49;;;;;;;10.30;7.20;;;;;;;12.28;72.23;99981.08;207481;1288;139990;-68
2023/01/02 16:19:58;;;;;;;10.70;6.70;;;;;;;12.17;72.37;99975.27;207326;1287;142350;-68
2023/01/02 16:25:36;;;;;;;10.80;6.00;;;;;;;12.11;72.65;99974.46;207606;1288;140435;-65
2023/01/02 16:30:44;;;;;;;9.60;6.90;;;;;;;12.10;72.47;99976.27;207367;1294;141257;-64
2023/01/02 16:36:11;;;;;;;9.80;7.30;;;;;;;12.04;72.71;99969.24;207534;1287;139777;-68
2023/01/02 16:41:36;;;;;;;7.00;5.80;;;;;;;11.94;72.66;99971.94;207591;1288;140158;-68
2023/01/02 16:46:42;;;;;;;13.80;7.60;;;;;;;11.82;72.80;99980.32;207657;1288;139634;-67
2023/01/02 16:51:47;;;;;;;30.60;7.90;;;;;;;11.75;72.83;99971.89;207809;1287;140245;-68
2023/01/02 16:56:49;;;;;;;12.00;6.90;;;;;;;11.74;72.79;99980.38;207883;1287;139914;-68
2023/01/02 17:01:54;;;;;;;7.80;6.30;;;;;;;11.70;72.99;99977.48;207785;1288;140781;-70
2023/01/02 17:06:57;;;;;;;7.90;6.30;;;;;;;11.64;73.12;99975.84;208296;1294;139485;-67
2023/01/02 17:12:01;;;;;;;12.00;6.90;;;;;;;11.61;73.52;99985.64;210265;1288;141088;-68
2023/01/02 17:17:03;;;;;;;9.60;6.80;;;;;;;11.60;73.31;99990.63;210066;1287;141004;-72
2023/01/02 17:22:05;;;;;;;12.90;9.30;;;;;;;11.62;73.19;99991.20;209806;1287;141698;-69
2023/01/02 17:27:07;;;;;;;9.70;7.80;;;;;;;11.62;73.18;99990.28;207654;1291;153175;-72
2023/01/02 17:32:09;;;;;;;10.40;8.00;;;;;;;11.55;73.12;99989.25;209612;1294;140419;-69
2023/01/02 17:37:13;;;;;;;12.80;7.10;;;;;;;11.48;73.13;100000.77;208310;1281;139704;-67
2023/01/02 17:42:19;;;;;;;9.10;7.30;;;;;;;11.41;73.12;99998.81;209645;1293;153284;-66
2023/01/02 17:47:24;;;;;;;13.70;8.50;;;;;;;11.40;73.19;99992.68;208704;1281;142137;-72
2023/01/02 17:52:48;;;;;;;13.70;7.50;;;;;;;11.35;73.25;99981.73;208227;1287;140847;-70
2023/01/02 17:57:51;;;;;;;13.70;9.00;;;;;;;11.31;73.48;99980.41;207723;1287;140678;-69
2023/01/02 18:02:54;;;;;;;12.50;6.80;;;;;;;11.27;73.42;99975.83;207365;1288;140324;-69
2023/01/02 18:07:58;;;;;;;14.70;8.90;;;;;;;11.29;73.45;99974.52;207326;1281;144218;-66
2023/01/02 18:13:02;;;;;;;11.40;7.20;;;;;;;11.28;73.54;99978.84;209169;1291;141273;-66
2023/01/02 18:18:13;;;;;;;15.10;8.30;;;;;;;11.26;73.70;99972.11;208272;1290;140272;-65
2023/01/02 18:23:17;;;;;;;9.80;7.20;;;;;;;11.23;73.66;99974.38;207332;1291;140190;-65
2023/01/02 18:28:25;;;;;;;12.80;7.50;;;;;;;11.24;73.60;99982.11;207556;1295;142070;-69
2023/01/02 18:33:30;;;;;;;13.30;7.30;;;;;;;11.21;73.66;99973.82;209023;1293;140347;-70
2023/01/02 18:38:38;;;;;;;14.30;7.10;;;;;;;11.16;73.65;99976.27;208425;1288;140444;-68
2023/01/02 18:43:43;;;;;;;10.50;7.80;;;;;;;11.10;74.01;99973.39;207311;1287;140903;-68
2023/01/02 18:48:46;;;;;;;11.30;7.30;;;;;;;11.04;73.86;99974.27;208116;1288;224887;-74
2023/01/02 18:53:55;;;;;;;9.70;8.00;;;;;;;11.07;73.76;99978.08;207669;1280;141727;-74
2023/01/02 18:59:20;;;;;;;13.90;8.50;;;;;;;11.04;73.97;99985.31;208078;1288;141248;-69
2023/01/02 19:04:29;;;;;;;15.50;8.40;;;;;;;10.94;73.87;99986.00;208198;1295;140286;-67
2023/01/02 19:09:33;;;;;;;9.80;7.70;;;;;;;10.85;73.77;100004.40;210485;1294;140589;-68
2023/01/02 19:14:41;;;;;;;12.80;7.80;;;;;;;10.83;73.64;100004.51;209720;1287;140696;-74
2023/01/02 19:19:44;;;;;;;12.00;8.30;;;;;;;10.81;73.69;100007.33;208381;1290;141079;-71
2023/01/02 19:24:47;;;;;;;12.00;8.50;;;;;;;10.71;73.69;100007.89;208107;1290;140805;-71
2023/01/02 19:29:51;;;;;;;14.40;8.50;;;;;;;10.62;73.76;100013.17;207090;1290;140590;-71
2023/01/02 19:35:24;;;;;;;14.50;10.90;;;;;;;10.56;73.91;100010.05;206884;1287;139816;-68
2023/01/02 19:40:26;;;;;;;14.40;10.40;;;;;;;10.54;73.84;100009.14;208288;1290;143091;-70
2023/01/02 19:45:30;;;;;;;13.70;8.30;;;;;;;10.50;74.10;100006.70;208265;1281;141012;-69
2023/01/02 19:50:33;;;;;;;13.30;9.00;;;;;;;10.39;74.00;100020.13;207900;1294;139553;-69
2023/01/02 19:55:36;;;;;;;16.90;9.90;;;;;;;10.30;73.94;100020.15;207345;1288;235474;-71
2023/01/02 20:00:38;;;;;;;11.50;8.60;;;;;;;10.26;74.14;100024.63;207173;1291;140722;-70
2023/01/02 20:05:40;;;;;;;17.80;10.90;;;;;;;10.20;74.20;100027.23;207279;1288;139608;-72
2023/01/02 20:10:42;;;;;;;19.10;10.90;;;;;;;10.16;74.62;100034.80;207247;1288;140970;-70
2023/01/02 20:15:44;;;;;;;15.50;9.20;;;;;;;10.07;74.51;100042.20;207032;1297;140715;-73
2023/01/02 20:20:47;;;;;;;17.00;12.70;;;;;;;10.02;74.45;100051.66;207143;1294;141295;-68
2023/01/02 20:25:50;;;;;;;14.60;10.30;;;;;;;9.96;74.69;100054.23;207087;1288;141258;-68
2023/01/02 20:30:54;;;;;;;18.00;9.90;;;;;;;9.89;74.64;100054.80;208364;1295;140775;-70
2023/01/02 20:35:56;;;;;;;14.50;9.40;;;;;;;9.81;74.79;100051.27;207974;1296;140656;-70
2023/01/02 20:40:58;;;;;;;14.50;9.10;;;;;;;9.74;74.75;100049.25;207055;1291;141101;-73
2023/01/02 20:46:00;;;;;;;19.90;11.10;;;;;;;9.73;74.81;100048.30;207380;1291;140860;-72
2023/01/02 20:51:03;;;;;;;16.70;10.00;;;;;;;9.69;74.95;100048.52;207711;1298;139468;-69
2023/01/02 20:56:06;;;;;;;17.10;11.30;;;;;;;9.65;75.14;100052.58;207364;1289;140393;-67
2023/01/02 21:01:08;;;;;;;18.50;10.80;;;;;;;9.59;75.15;100060.65;207658;1288;139566;-72
2023/01/02 21:06:11;;;;;;;17.50;11.30;;;;;;;9.56;75.09;100059.05;207264;1297;139762;-66
2023/01/02 21:11:13;;;;;;;21.50;11.50;;;;;;;9.55;75.13;100053.02;210120;1295;141825;-71
2023/01/02 21:16:16;;;;;;;19.50;11.80;;;;;;;9.50;75.17;100053.40;209315;1286;139369;-70
2023/01/02 21:21:20;;;;;;;15.60;9.60;;;;;;;9.46;75.34;100050.64;207298;1294;245617;-67
2023/01/02 21:26:23;;;;;;;17.90;10.30;;;;;;;9.43;75.10;100057.67;208685;1295;141683;-71
2023/01/02 21:31:26;;;;;;;20.00;12.00;;;;;;;9.42;75.26;100060.63;207673;1287;140912;-67
2023/01/02 21:36:29;;;;;;;26.20;11.30;;;;;;;9.42;75.28;100065.36;207876;1288;139344;-64
2023/01/02 21:46:52;;;;;;;16.30;9.50;;;;;;;9.38;75.49;100087.42;208346;1288;141410;-67
2023/01/02 21:51:54;;;;;;;12.20;8.40;;;;;;;9.36;75.41;100095.34;208692;1288;140011;-69
2023/01/02 21:56:57;;;;;;;18.50;10.70;;;;;;;9.40;75.33;100096.95;207486;1287;141932;-69
2023/01/02 22:02:02;;;;;;;18.40;11.50;;;;;;;9.40;75.41;100097.72;207344;1295;141682;-67
2023/01/02 22:07:07;;;;;;;13.10;9.40;;;;;;;9.40;75.41;100102.64;207779;1288;140458;-66
2023/01/02 22:12:30;;;;;;;18.60;10.10;;;;;;;9.37;75.38;100103.94;207814;1297;220757;-69
2023/01/02 22:17:34;;;;;;;14.80;9.80;;;;;;;9.36;75.31;100109.98;207349;1287;143928;-67
2023/01/02 22:22:38;;;;;;;21.30;9.80;;;;;;;9.41;75.34;100114.22;207436;1294;141256;-73
2023/01/02 22:27:40;;;;;;;15.00;8.80;;;;;;;9.45;75.61;100117.87;208858;1283;140592;-71
2023/01/02 22:32:44;;;;;;;17.10;11.30;;;;;;;9.50;75.46;100122.11;207504;1281;140374;-69
2023/01/02 22:37:47;;;;;;;13.50;7.80;;;;;;;9.52;75.40;100116.43;209134;1296;141051;-70
2023/01/02 22:42:53;;;;;;;14.70;8.90;;;;;;;9.53;75.30;100126.25;207507;1295;141027;-68
2023/01/02 22:48:21;;;;;;;16.50;9.70;;;;;;;9.58;75.14;100125.96;208534;1295;220428;-69
2023/01/02 22:53:33;;;;;;;10.50;6.80;;;;;;;9.61;75.18;100122.62;210395;1295;141194;-69
2023/01/02 22:58:38;;;;;;;13.10;9.10;;;;;;;9.62;75.09;100111.64;210133;1295;142186;-68
2023/01/02 23:03:42;;;;;;;12.20;10.60;;;;;;;9.64;75.09;100116.05;210062;1284;139394;-69
2023/01/02 23:08:46;;;;;;;14.20;8.60;;;;;;;9.65;74.92;100119.27;209918;1297;141198;-70
2023/01/02 23:13:50;;;;;;;14.00;9.60;;;;;;;9.69;74.78;100120.39;210062;1297;142375;-70
2023/01/02 23:19:14;;;;;;;12.80;9.40;;;;;;;9.74;74.79;100120.48;207473;1281;243132;-69
2023/01/02 23:24:18;;;;;;;;;;;;;;;9.76;74.82;100120.16;207324;1291;140057;-68
2023/01/02 23:29:25;;;;;;;13.60;8.90;;;;;;;9.72;74.86;100123.67;208061;1281;126289;-68
2023/01/02 23:34:29;;;;;;;15.00;8.20;;;;;;;9.73;74.86;100128.17;208966;1287;140876;-71
2023/01/02 23:39:33;;;;;;;15.70;8.40;;;;;;;9.79;74.74;100126.63;208990;1288;141187;-64
2023/01/02 23:44:37;;;;;;;16.20;10.10;;;;;;;9.85;74.76;100123.24;208447;1302;139968;-68
2023/01/02 23:49:39;;;;;;;15.90;8.30;;;;;;;9.89;74.79;100120.84;208860;1297;140894;-66
2023/01/02 23:54:41;;;;;;;11.50;8.00;;;;;;;9.87;74.54;100124.63;208484;1297;142171;-69